Time;durP1;ratioP1;P1;durP2;ratioP2;P2;SDS_P1;SDS_P2;PMS_P1;PMS_P2;Temp;Humidity;BMP_temperature;BMP_pressure;BME280_temperature;BME280_humidity;BME280_pressure;Samples;Min_cycle;Max_cycle;Signal;HPM_P1;HPM_P2
2023/03/24 00:12:41;;;;;;;24.13;13.90;;;;;;;14.61;100.00;100193.47;31199932;28;20091;-78
2023/03/24 00:27:44;;;;;;;26.87;12.90;;;;;;;14.73;100.00;100180.19;31204421;28;20050;-77
2023/03/24 00:42:49;;;;;;;26.60;14.17;;;;;;;14.78;100.00;100179.63;31183917;28;20050;-78
2023/03/24 00:57:54;;;;;;;26.80;14.03;;;;;;;14.62;100.00;100189.53;31159526;28;20084;-77
2023/03/24 01:12:58;;;;;;;31.03;16.17;;;;;;;14.41;100.00;100189.50;31170405;28;20427;-77
2023/03/24 01:28:01;;;;;;;30.33;17.90;;;;;;;14.26;100.00;100179.00;31176172;28;20045;-77
2023/03/24 01:43:05;;;;;;;24.90;13.57;;;;;;;14.34;100.00;100190.47;31164313;28;20060;-77
2023/03/24 01:58:07;;;;;;;26.20;13.37;;;;;;;14.32;100.00;100198.34;31204574;28;20057;-78
2023/03/24 02:13:10;;;;;;;28.30;13.63;;;;;;;14.45;100.00;100190.88;31225052;28;20447;-78
2023/03/24 02:28:21;;;;;;;27.63;13.30;;;;;;;14.58;100.00;100193.59;31231006;28;20107;-76
2023/03/24 02:43:46;;;;;;;32.50;17.60;;;;;;;13.57;100.00;100208.91;31238017;28;20049;-78
2023/03/24 02:58:54;;;;;;;30.07;16.50;;;;;;;13.29;100.00;100228.81;31210636;28;20137;-76
2023/03/24 03:14:11;;;;;;;29.70;14.87;;;;;;;13.65;100.00;100234.00;31218115;28;20388;-76
2023/03/24 03:29:20;;;;;;;36.40;19.03;;;;;;;13.06;100.00;100248.91;31201459;28;20045;-76
2023/03/24 03:44:23;;;;;;;27.53;14.63;;;;;;;13.39;100.00;100249.56;31200504;28;20100;-78
2023/03/24 03:59:35;;;;;;;30.53;15.87;;;;;;;13.97;100.00;100261.06;31207301;28;20057;-77
2023/03/24 04:14:50;;;;;;;34.33;17.37;;;;;;;13.55;100.00;100263.13;31180151;28;20057;-75
2023/03/24 04:30:09;;;;;;;41.07;17.90;;;;;;;13.57;100.00;100243.59;31201081;28;20045;-77
2023/03/24 04:45:13;;;;;;;35.00;16.57;;;;;;;14.13;100.00;100240.31;31194793;28;20100;-77
2023/03/24 05:00:15;;;;;;;42.73;18.03;;;;;;;14.42;100.00;100231.97;31180214;28;20057;-78
2023/03/24 05:15:17;;;;;;;42.27;17.53;;;;;;;15.07;100.00;100223.88;31191451;28;20110;-77
2023/03/24 05:30:19;;;;;;;42.93;19.87;;;;;;;15.57;100.00;100252.16;31194074;28;20053;-77
2023/03/24 05:45:23;;;;;;;42.03;21.17;;;;;;;16.22;100.00;100275.81;31182496;28;20416;-78
2023/03/24 06:00:25;;;;;;;35.27;18.67;;;;;;;16.08;100.00;100276.34;31232760;28;20064;-78
2023/03/24 06:15:29;;;;;;;44.77;21.07;;;;;;;16.09;100.00;100286.84;31241163;28;20560;-79
2023/03/24 06:30:31;;;;;;;36.67;17.90;;;;;;;16.52;100.00;100283.19;31211088;28;20052;-84
2023/03/24 06:45:33;;;;;;;46.27;23.60;;;;;;;18.05;100.00;100277.19;31243080;28;20106;-82
2023/03/24 07:00:35;;;;;;;37.47;22.98;;;;;;;20.11;87.34;100260.25;31223729;28;20068;-83
2023/03/24 07:15:37;;;;;;;41.15;20.50;;;;;;;20.04;82.53;100272.44;31222939;28;20092;-75
2023/03/24 07:30:39;;;;;;;33.47;16.70;;;;;;;20.43;81.97;100275.00;31183931;28;20054;-75
2023/03/24 07:46:08;;;;;;;28.48;14.07;;;;;;;22.82;67.18;100260.88;31174702;28;20065;-82
2023/03/24 08:01:11;;;;;;;26.20;12.07;;;;;;;22.20;70.19;100262.63;31170300;28;20069;-84
2023/03/24 08:16:13;;;;;;;19.45;11.05;;;;;;;23.78;60.49;100238.31;31257515;28;20046;-81
2023/03/24 08:31:18;;;;;;;24.25;11.13;;;;;;;22.50;62.20;100247.16;31188026;28;20505;-79
2023/03/24 08:46:20;;;;;;;15.80;9.30;;;;;;;22.10;60.53;100253.75;31224938;28;20057;-78
2023/03/24 09:01:22;;;;;;;17.48;8.38;;;;;;;23.30;52.58;100228.25;31228858;28;20053;-81
2023/03/24 09:16:24;;;;;;;15.00;8.85;;;;;;;23.15;53.18;100227.72;31198862;28;20061;-82
2023/03/24 09:31:26;;;;;;;17.70;8.77;;;;;;;22.79;53.28;100202.50;31241675;28;20045;-79
2023/03/24 09:46:37;;;;;;;17.63;8.40;;;;;;;23.29;52.87;100196.28;31236893;28;20491;-81
2023/03/24 10:01:39;;;;;;;14.10;8.35;;;;;;;24.72;46.46;100200.44;31212919;28;20172;-79
2023/03/24 10:16:48;;;;;;;12.33;7.47;;;;;;;24.66;45.20;100203.22;31193859;28;20056;-79
2023/03/24 10:31:56;;;;;;;15.88;7.70;;;;;;;25.84;41.41;100191.97;31220338;28;20053;-74
2023/03/24 10:47:02;;;;;;;16.88;7.65;;;;;;;26.26;40.54;100161.88;31202713;28;20541;-76
2023/03/24 11:02:17;;;;;;;18.23;8.27;;;;;;;24.68;42.35;100156.28;31194157;28;20099;-75
2023/03/24 11:17:20;;;;;;;20.17;8.65;;;;;;;23.18;46.66;100138.09;31216956;28;20050;-74
2023/03/24 11:32:26;;;;;;;18.48;7.60;;;;;;;23.70;46.82;100143.09;31217138;28;20049;-78
2023/03/24 11:47:35;;;;;;;15.25;7.38;;;;;;;23.89;45.95;100132.19;31179200;28;20054;-74
2023/03/24 12:02:48;;;;;;;16.63;5.78;;;;;;;26.52;37.33;100123.09;31190183;28;20474;-79
2023/03/24 12:18:20;;;;;;;11.80;6.20;;;;;;;24.39;39.17;100118.88;31201355;28;20997;-78
2023/03/24 12:34:16;;;;;;;13.02;6.60;;;;;;;23.11;40.06;100108.19;31210128;28;20092;-77
2023/03/24 12:49:42;;;;;;;13.73;6.05;;;;;;;22.46;42.39;100108.34;31138106;28;20053;-77
2023/03/24 13:04:47;;;;;;;10.85;6.65;;;;;;;22.14;43.38;100087.66;31178950;28;20168;-77
2023/03/24 13:19:51;;;;;;;12.77;6.18;;;;;;;21.77;44.11;100082.97;31225305;28;20095;-77
2023/03/24 13:35:14;;;;;;;9.85;6.30;;;;;;;21.57;45.42;100091.41;31206971;28;20108;-78
2023/03/24 13:50:16;;;;;;;15.88;6.15;;;;;;;21.30;46.48;100084.47;31243248;28;20503;-76
2023/03/24 14:05:22;;;;;;;13.27;7.82;;;;;;;21.13;48.19;100076.06;31242764;28;20084;-76
2023/03/24 14:20:28;;;;;;;12.68;5.13;;;;;;;20.96;47.20;100056.63;31228399;28;20049;-76
2023/03/24 14:35:40;;;;;;;13.35;5.55;;;;;;;20.72;46.08;100048.69;31196999;28;20415;-77
2023/03/24 14:50:42;;;;;;;10.82;4.30;;;;;;;20.87;46.23;100039.50;31193931;28;20054;-76
2023/03/24 15:05:44;;;;;;;16.20;7.70;;;;;;;20.38;47.59;100044.84;31228819;28;20111;-76
2023/03/24 15:20:47;;;;;;;11.02;7.20;;;;;;;19.88;50.61;100044.28;31209497;28;20049;-77
2023/03/24 15:36:36;;;;;;;14.13;6.05;;;;;;;19.45;53.73;100036.97;31205655;28;20053;-80
2023/03/24 15:52:01;;;;;;;57.05;27.75;;;;;;;19.16;57.24;100041.34;31211458;28;20053;-74
2023/03/24 16:07:03;;;;;;;;;;;;;;;18.78;59.58;100044.25;31205588;28;20418;-74
2023/03/24 16:22:11;;;;;;;10.82;6.13;;;;;;;18.47;61.49;100030.97;31234451;28;19925;-75
2023/03/24 16:37:14;;;;;;;17.02;8.10;;;;;;;18.22;63.23;100044.03;31169929;28;20563;-74
2023/03/24 16:52:16;;;;;;;16.60;7.22;;;;;;;17.81;66.50;100053.97;31231686;28;20557;-75
2023/03/24 17:07:19;;;;;;;18.23;9.73;;;;;;;17.50;68.84;100061.78;31168364;28;20058;-73
2023/03/24 17:22:21;;;;;;;20.80;11.53;;;;;;;17.32;70.37;100079.88;31134935;28;20050;-74
2023/03/24 17:37:24;;;;;;;17.23;10.43;;;;;;;16.92;75.76;100104.09;31226280;28;20064;-76
2023/03/24 17:52:27;;;;;;;24.47;14.77;;;;;;;16.01;100.00;100119.38;31230262;28;20491;-76
2023/03/24 18:07:29;;;;;;;33.70;16.60;;;;;;;15.10;100.00;100110.88;31218195;28;20053;-76
2023/03/24 18:22:31;;;;;;;40.90;18.63;;;;;;;14.67;100.00;100120.63;31223689;28;20045;-75
2023/03/24 18:37:34;;;;;;;29.27;16.27;;;;;;;14.15;100.00;100131.44;31239083;28;20146;-73
2023/03/24 18:52:35;;;;;;;29.87;17.10;;;;;;;13.79;100.00;100132.63;31203211;28;20054;-76
2023/03/24 19:07:37;;;;;;;49.80;16.77;;;;;;;13.50;100.00;100097.28;31223071;28;20054;-76
2023/03/24 19:22:41;;;;;;;22.07;9.90;;;;;;;13.39;100.00;100107.03;31192472;28;20049;-74
2023/03/24 19:37:43;;;;;;;21.60;10.73;;;;;;;13.00;100.00;100136.16;31213134;28;20050;-74
2023/03/24 19:52:45;;;;;;;25.17;11.10;;;;;;;12.87;100.00;100138.13;31188808;28;20492;-77
2023/03/24 20:07:47;;;;;;;27.93;11.67;;;;;;;12.62;100.00;100134.13;31212626;28;20408;-76
2023/03/24 20:22:49;;;;;;;28.77;12.37;;;;;;;12.29;100.00;100127.25;31229700;28;20048;-76
2023/03/24 20:37:51;;;;;;;22.13;12.30;;;;;;;11.90;100.00;100129.00;31205419;28;20053;-75
2023/03/24 20:52:53;;;;;;;31.87;14.10;;;;;;;11.53;100.00;100135.69;31225601;28;20089;-77
2023/03/24 21:07:55;;;;;;;28.77;11.83;;;;;;;11.30;100.00;100130.41;31234018;28;20096;-75
2023/03/24 21:22:56;;;;;;;30.10;14.27;;;;;;;11.12;100.00;100138.16;31201390;28;20487;-77
2023/03/24 21:38:00;;;;;;;32.70;14.27;;;;;;;11.14;100.00;100117.53;31221471;28;20045;-75
2023/03/24 21:53:05;;;;;;;27.57;13.23;;;;;;;11.04;100.00;100096.81;31271475;28;20046;-84
2023/03/24 22:08:09;;;;;;;32.23;13.13;;;;;;;10.77;100.00;100093.50;31227308;28;20075;-84
2023/03/24 22:23:11;;;;;;;31.27;13.23;;;;;;;11.11;100.00;100102.06;31242348;28;20103;-82
2023/03/24 22:38:14;;;;;;;29.27;13.43;;;;;;;10.95;100.00;100083.03;31188644;28;20091;-81
2023/03/24 22:53:16;;;;;;;29.00;13.73;;;;;;;10.87;100.00;100087.06;31217535;28;20100;-81
2023/03/24 23:08:18;;;;;;;26.93;12.80;;;;;;;10.50;100.00;100064.56;31221894;28;20050;-83
2023/03/24 23:23:20;;;;;;;28.87;13.77;;;;;;;10.31;100.00;100054.47;31203548;28;20053;-83
2023/03/24 23:38:23;;;;;;;29.77;13.23;;;;;;;10.41;100.00;100056.19;31207768;28;20055;-83
2023/03/24 23:53:26;;;;;;;34.87;13.53;;;;;;;10.24;100.00;100035.63;31245595;28;20502;-83
